sensor_id;sensor_type;location;lat;lon;timestamp;P1;durP1;ratioP1;P2;durP2;ratioP2
43696;SDS011;29301;47.620;19.560;2022-12-07T00:04:48;1.10;;;0.70;;
43696;SDS011;29301;47.620;19.560;2022-12-07T00:11:35;1.10;;;0.70;;
43696;SDS011;29301;47.620;19.560;2022-12-07T00:32:36;1.00;;;0.70;;
43696;SDS011;29301;47.620;19.560;2022-12-07T00:49:42;1.10;;;0.70;;
43696;SDS011;29301;47.620;19.560;2022-12-07T00:52:34;1.20;;;0.80;;
43696;SDS011;29301;47.620;19.560;2022-12-07T00:55:47;1.13;;;0.70;;
43696;SDS011;29301;47.620;19.560;2022-12-07T02:08:12;1.10;;;0.70;;
43696;SDS011;29301;47.620;19.560;2022-12-07T03:23:11;1.20;;;0.80;;
43696;SDS011;29301;47.620;19.560;2022-12-07T04:23:23;1.20;;;0.80;;
43696;SDS011;29301;47.620;19.560;2022-12-07T04:44:38;1.20;;;0.80;;
43696;SDS011;29301;47.620;19.560;2022-12-07T04:52:08;1.30;;;0.80;;
43696;SDS011;29301;47.620;19.560;2022-12-07T04:55:52;1.20;;;0.80;;
43696;SDS011;29301;47.620;19.560;2022-12-07T05:35:09;1.20;;;0.80;;
43696;SDS011;29301;47.620;19.560;2022-12-07T05:38:40;1.20;;;0.80;;
43696;SDS011;29301;47.620;19.560;2022-12-07T07:31:06;1.00;;;0.70;;
43696;SDS011;29301;47.620;19.560;2022-12-07T07:33:31;0.98;;;0.60;;
43696;SDS011;29301;47.620;19.560;2022-12-07T07:35:57;1.00;;;0.70;;
43696;SDS011;29301;47.620;19.560;2022-12-07T07:38:23;1.10;;;0.70;;
43696;SDS011;29301;47.620;19.560;2022-12-07T07:40:48;1.00;;;0.70;;
43696;SDS011;29301;47.620;19.560;2022-12-07T07:43:14;1.05;;;0.70;;
43696;SDS011;29301;47.620;19.560;2022-12-07T07:45:40;1.00;;;0.70;;
43696;SDS011;29301;47.620;19.560;2022-12-07T07:48:05;1.00;;;0.70;;
43696;SDS011;29301;47.620;19.560;2022-12-07T07:50:31;1.00;;;0.70;;
43696;SDS011;29301;47.620;19.560;2022-12-07T07:52:57;0.90;;;0.70;;
43696;SDS011;29301;47.620;19.560;2022-12-07T07:55:23;1.00;;;0.70;;
43696;SDS011;29301;47.620;19.560;2022-12-07T07:57:48;1.08;;;0.70;;
43696;SDS011;29301;47.620;19.560;2022-12-07T08:00:14;1.08;;;0.70;;
43696;SDS011;29301;47.620;19.560;2022-12-07T08:02:41;1.02;;;0.70;;
43696;SDS011;29301;47.620;19.560;2022-12-07T08:05:11;0.90;;;0.70;;
43696;SDS011;29301;47.620;19.560;2022-12-07T08:07:37;1.00;;;0.70;;
43696;SDS011;29301;47.620;19.560;2022-12-07T08:10:03;1.00;;;0.70;;
43696;SDS011;29301;47.620;19.560;2022-12-07T08:12:29;1.00;;;0.70;;
43696;SDS011;29301;47.620;19.560;2022-12-07T08:14:54;1.00;;;0.70;;
43696;SDS011;29301;47.620;19.560;2022-12-07T08:17:20;0.90;;;0.65;;
43696;SDS011;29301;47.620;19.560;2022-12-07T08:19:46;1.00;;;0.70;;
43696;SDS011;29301;47.620;19.560;2022-12-07T08:22:11;1.02;;;0.70;;
43696;SDS011;29301;47.620;19.560;2022-12-07T08:24:37;0.90;;;0.60;;
43696;SDS011;29301;47.620;19.560;2022-12-07T08:27:03;1.00;;;0.70;;
43696;SDS011;29301;47.620;19.560;2022-12-07T08:29:29;1.00;;;0.70;;
43696;SDS011;29301;47.620;19.560;2022-12-07T08:31:54;0.90;;;0.70;;
43696;SDS011;29301;47.620;19.560;2022-12-07T08:34:20;1.02;;;0.70;;
43696;SDS011;29301;47.620;19.560;2022-12-07T08:36:46;1.00;;;0.70;;
43696;SDS011;29301;47.620;19.560;2022-12-07T08:39:11;1.00;;;0.70;;
43696;SDS011;29301;47.620;19.560;2022-12-07T08:41:37;0.90;;;0.60;;
43696;SDS011;29301;47.620;19.560;2022-12-07T08:44:03;1.02;;;0.70;;
43696;SDS011;29301;47.620;19.560;2022-12-07T08:46:36;1.10;;;0.70;;
43696;SDS011;29301;47.620;19.560;2022-12-07T08:49:17;1.00;;;0.70;;
43696;SDS011;29301;47.620;19.560;2022-12-07T08:51:46;0.90;;;0.70;;
43696;SDS011;29301;47.620;19.560;2022-12-07T08:54:14;1.00;;;0.70;;
43696;SDS011;29301;47.620;19.560;2022-12-07T08:56:41;1.00;;;0.70;;
43696;SDS011;29301;47.620;19.560;2022-12-07T08:59:08;0.93;;;0.70;;
43696;SDS011;29301;47.620;19.560;2022-12-07T09:01:34;0.90;;;0.70;;
43696;SDS011;29301;47.620;19.560;2022-12-07T09:04:00;0.98;;;0.70;;
43696;SDS011;29301;47.620;19.560;2022-12-07T09:06:26;0.90;;;0.70;;
43696;SDS011;29301;47.620;19.560;2022-12-07T09:08:54;1.00;;;0.70;;
43696;SDS011;29301;47.620;19.560;2022-12-07T09:11:24;1.08;;;0.70;;
43696;SDS011;29301;47.620;19.560;2022-12-07T09:13:49;0.98;;;0.70;;
43696;SDS011;29301;47.620;19.560;2022-12-07T09:16:15;0.90;;;0.70;;
43696;SDS011;29301;47.620;19.560;2022-12-07T09:18:41;1.00;;;0.70;;
43696;SDS011;29301;47.620;19.560;2022-12-07T09:21:06;0.93;;;0.70;;
43696;SDS011;29301;47.620;19.560;2022-12-07T09:23:32;0.90;;;0.70;;
43696;SDS011;29301;47.620;19.560;2022-12-07T09:26:01;0.95;;;0.70;;
43696;SDS011;29301;47.620;19.560;2022-12-07T09:28:29;0.90;;;0.60;;
43696;SDS011;29301;47.620;19.560;2022-12-07T09:30:55;0.85;;;0.60;;
43696;SDS011;29301;47.620;19.560;2022-12-07T09:33:21;0.93;;;0.68;;
43696;SDS011;29301;47.620;19.560;2022-12-07T09:35:47;0.90;;;0.70;;
43696;SDS011;29301;47.620;19.560;2022-12-07T09:38:14;1.00;;;0.70;;
43696;SDS011;29301;47.620;19.560;2022-12-07T09:40:40;0.80;;;0.60;;
43696;SDS011;29301;47.620;19.560;2022-12-07T09:43:15;1.00;;;0.70;;
43696;SDS011;29301;47.620;19.560;2022-12-07T09:45:50;0.90;;;0.65;;
43696;SDS011;29301;47.620;19.560;2022-12-07T09:48:22;1.00;;;0.70;;
43696;SDS011;29301;47.620;19.560;2022-12-07T09:51:12;0.90;;;0.70;;
43696;SDS011;29301;47.620;19.560;2022-12-07T09:53:44;0.93;;;0.60;;
43696;SDS011;29301;47.620;19.560;2022-12-07T09:56:11;0.90;;;0.60;;
43696;SDS011;29301;47.620;19.560;2022-12-07T09:58:39;0.80;;;0.60;;
43696;SDS011;29301;47.620;19.560;2022-12-07T10:01:09;0.90;;;0.70;;
43696;SDS011;29301;47.620;19.560;2022-12-07T10:03:42;0.90;;;0.60;;
43696;SDS011;29301;47.620;19.560;2022-12-07T10:06:18;0.85;;;0.60;;
43696;SDS011;29301;47.620;19.560;2022-12-07T10:08:43;0.80;;;0.60;;
43696;SDS011;29301;47.620;19.560;2022-12-07T10:11:10;0.88;;;0.60;;
43696;SDS011;29301;47.620;19.560;2022-12-07T10:16:04;0.82;;;0.60;;
43696;SDS011;29301;47.620;19.560;2022-12-07T10:18:37;0.90;;;0.70;;
43696;SDS011;29301;47.620;19.560;2022-12-07T10:28:54;0.90;;;0.60;;
43696;SDS011;29301;47.620;19.560;2022-12-07T10:31:22;0.80;;;0.60;;
43696;SDS011;29301;47.620;19.560;2022-12-07T10:33:55;0.85;;;0.60;;
43696;SDS011;29301;47.620;19.560;2022-12-07T10:36:27;0.93;;;0.70;;
43696;SDS011;29301;47.620;19.560;2022-12-07T10:41:57;0.90;;;0.68;;
43696;SDS011;29301;47.620;19.560;2022-12-07T10:44:28;0.80;;;0.60;;
43696;SDS011;29301;47.620;19.560;2022-12-07T10:53:00;0.80;;;0.60;;
43696;SDS011;29301;47.620;19.560;2022-12-07T10:58:31;0.93;;;0.70;;
43696;SDS011;29301;47.620;19.560;2022-12-07T11:01:18;0.90;;;0.70;;
43696;SDS011;29301;47.620;19.560;2022-12-07T11:03:53;0.90;;;0.70;;
43696;SDS011;29301;47.620;19.560;2022-12-07T11:11:39;1.00;;;0.70;;
43696;SDS011;29301;47.620;19.560;2022-12-07T11:22:16;0.80;;;0.60;;
43696;SDS011;29301;47.620;19.560;2022-12-07T11:24:50;0.80;;;0.55;;
43696;SDS011;29301;47.620;19.560;2022-12-07T11:30:20;0.80;;;0.60;;
43696;SDS011;29301;47.620;19.560;2022-12-07T11:33:02;0.80;;;0.60;;
43696;SDS011;29301;47.620;19.560;2022-12-07T11:41:12;0.75;;;0.60;;
43696;SDS011;29301;47.620;19.560;2022-12-07T11:44:23;0.90;;;0.60;;
43696;SDS011;29301;47.620;19.560;2022-12-07T11:46:29;0.90;;;0.60;;
43696;SDS011;29301;47.620;19.560;2022-12-07T11:49:57;0.80;;;0.60;;
43696;SDS011;29301;47.620;19.560;2022-12-07T11:52:20;0.95;;;0.60;;
43696;SDS011;29301;47.620;19.560;2022-12-07T11:54:52;0.80;;;0.60;;
43696;SDS011;29301;47.620;19.560;2022-12-07T11:57:32;0.80;;;0.60;;
43696;SDS011;29301;47.620;19.560;2022-12-07T12:00:04;0.70;;;0.60;;
43696;SDS011;29301;47.620;19.560;2022-12-07T12:02:39;0.85;;;0.60;;
43696;SDS011;29301;47.620;19.560;2022-12-07T12:05:18;0.90;;;0.70;;
43696;SDS011;29301;47.620;19.560;2022-12-07T12:08:00;0.80;;;0.60;;
43696;SDS011;29301;47.620;19.560;2022-12-07T12:11:00;0.80;;;0.60;;
43696;SDS011;29301;47.620;19.560;2022-12-07T12:18:53;0.80;;;0.60;;
43696;SDS011;29301;47.620;19.560;2022-12-07T12:21:29;0.80;;;0.60;;
43696;SDS011;29301;47.620;19.560;2022-12-07T12:24:10;0.90;;;0.70;;
43696;SDS011;29301;47.620;19.560;2022-12-07T12:26:48;0.90;;;0.60;;
43696;SDS011;29301;47.620;19.560;2022-12-07T12:29:31;0.80;;;0.60;;
43696;SDS011;29301;47.620;19.560;2022-12-07T12:42:47;0.85;;;0.60;;
43696;SDS011;29301;47.620;19.560;2022-12-07T12:45:20;0.90;;;0.70;;
43696;SDS011;29301;47.620;19.560;2022-12-07T12:48:03;0.80;;;0.60;;
43696;SDS011;29301;47.620;19.560;2022-12-07T12:50:50;0.80;;;0.60;;
43696;SDS011;29301;47.620;19.560;2022-12-07T12:53:58;0.90;;;0.70;;
43696;SDS011;29301;47.620;19.560;2022-12-07T12:56:43;0.90;;;0.60;;
43696;SDS011;29301;47.620;19.560;2022-12-07T12:59:23;0.80;;;0.60;;
43696;SDS011;29301;47.620;19.560;2022-12-07T13:01:56;0.77;;;0.60;;
43696;SDS011;29301;47.620;19.560;2022-12-07T13:04:37;0.80;;;0.60;;
43696;SDS011;29301;47.620;19.560;2022-12-07T13:20:55;0.80;;;0.60;;
43696;SDS011;29301;47.620;19.560;2022-12-07T13:31:36;0.80;;;0.60;;
43696;SDS011;29301;47.620;19.560;2022-12-07T13:34:03;0.90;;;0.60;;
43696;SDS011;29301;47.620;19.560;2022-12-07T13:36:32;0.80;;;0.65;;
43696;SDS011;29301;47.620;19.560;2022-12-07T13:39:16;0.85;;;0.60;;
43696;SDS011;29301;47.620;19.560;2022-12-07T13:41:44;0.98;;;0.70;;
43696;SDS011;29301;47.620;19.560;2022-12-07T13:44:16;0.90;;;0.60;;
43696;SDS011;29301;47.620;19.560;2022-12-07T13:47:05;0.90;;;0.70;;
43696;SDS011;29301;47.620;19.560;2022-12-07T13:49:58;0.80;;;0.60;;
43696;SDS011;29301;47.620;19.560;2022-12-07T13:52:25;0.85;;;0.60;;
43696;SDS011;29301;47.620;19.560;2022-12-07T13:57:30;0.90;;;0.60;;
43696;SDS011;29301;47.620;19.560;2022-12-07T14:00:02;0.80;;;0.60;;
43696;SDS011;29301;47.620;19.560;2022-12-07T14:02:34;0.80;;;0.60;;
43696;SDS011;29301;47.620;19.560;2022-12-07T14:07:35;0.70;;;0.60;;
43696;SDS011;29301;47.620;19.560;2022-12-07T14:10:35;0.80;;;0.60;;
43696;SDS011;29301;47.620;19.560;2022-12-07T14:13:02;0.85;;;0.60;;
43696;SDS011;29301;47.620;19.560;2022-12-07T14:15:44;0.95;;;0.68;;
43696;SDS011;29301;47.620;19.560;2022-12-07T14:23:36;0.80;;;0.60;;
43696;SDS011;29301;47.620;19.560;2022-12-07T14:28:39;0.80;;;0.60;;
43696;SDS011;29301;47.620;19.560;2022-12-07T14:31:13;0.80;;;0.60;;
43696;SDS011;29301;47.620;19.560;2022-12-07T14:33:42;0.80;;;0.60;;
43696;SDS011;29301;47.620;19.560;2022-12-07T14:36:12;0.80;;;0.60;;
43696;SDS011;29301;47.620;19.560;2022-12-07T14:38:38;0.85;;;0.60;;
43696;SDS011;29301;47.620;19.560;2022-12-07T14:41:04;0.80;;;0.60;;
43696;SDS011;29301;47.620;19.560;2022-12-07T14:43:56;0.90;;;0.60;;
43696;SDS011;29301;47.620;19.560;2022-12-07T14:46:22;0.98;;;0.70;;
43696;SDS011;29301;47.620;19.560;2022-12-07T14:48:47;0.70;;;0.60;;
43696;SDS011;29301;47.620;19.560;2022-12-07T14:51:13;0.80;;;0.60;;
43696;SDS011;29301;47.620;19.560;2022-12-07T14:53:40;0.90;;;0.60;;
43696;SDS011;29301;47.620;19.560;2022-12-07T14:56:13;1.00;;;0.70;;
43696;SDS011;29301;47.620;19.560;2022-12-07T14:58:39;1.00;;;0.70;;
43696;SDS011;29301;47.620;19.560;2022-12-07T15:01:05;0.85;;;0.60;;
43696;SDS011;29301;47.620;19.560;2022-12-07T15:03:31;0.80;;;0.60;;
43696;SDS011;29301;47.620;19.560;2022-12-07T15:05:57;0.90;;;0.60;;
43696;SDS011;29301;47.620;19.560;2022-12-07T15:08:23;1.00;;;0.60;;
43696;SDS011;29301;47.620;19.560;2022-12-07T15:10:48;0.80;;;0.60;;
43696;SDS011;29301;47.620;19.560;2022-12-07T15:13:14;0.90;;;0.70;;
43696;SDS011;29301;47.620;19.560;2022-12-07T15:15:58;0.90;;;0.70;;
43696;SDS011;29301;47.620;19.560;2022-12-07T15:18:25;1.08;;;0.70;;
43696;SDS011;29301;47.620;19.560;2022-12-07T15:20:50;1.00;;;0.70;;
43696;SDS011;29301;47.620;19.560;2022-12-07T15:23:16;0.90;;;0.70;;
43696;SDS011;29301;47.620;19.560;2022-12-07T15:25:46;1.00;;;0.70;;
43696;SDS011;29301;47.620;19.560;2022-12-07T15:28:13;0.98;;;0.70;;
43696;SDS011;29301;47.620;19.560;2022-12-07T15:30:40;1.17;;;0.70;;
43696;SDS011;29301;47.620;19.560;2022-12-07T15:33:07;1.02;;;0.70;;
43696;SDS011;29301;47.620;19.560;2022-12-07T15:35:33;0.93;;;0.70;;
43696;SDS011;29301;47.620;19.560;2022-12-07T15:38:03;1.00;;;0.70;;
43696;SDS011;29301;47.620;19.560;2022-12-07T15:40:28;1.00;;;0.70;;
43696;SDS011;29301;47.620;19.560;2022-12-07T15:42:54;1.10;;;0.70;;
43696;SDS011;29301;47.620;19.560;2022-12-07T15:45:20;1.00;;;0.70;;
43696;SDS011;29301;47.620;19.560;2022-12-07T15:47:45;1.02;;;0.70;;
43696;SDS011;29301;47.620;19.560;2022-12-07T15:50:13;1.10;;;0.70;;
43696;SDS011;29301;47.620;19.560;2022-12-07T15:52:40;1.20;;;0.70;;
43696;SDS011;29301;47.620;19.560;2022-12-07T15:55:06;1.00;;;0.70;;
43696;SDS011;29301;47.620;19.560;2022-12-07T15:57:32;1.10;;;0.70;;
43696;SDS011;29301;47.620;19.560;2022-12-07T15:59:59;1.00;;;0.70;;
43696;SDS011;29301;47.620;19.560;2022-12-07T16:02:25;0.88;;;0.70;;
43696;SDS011;29301;47.620;19.560;2022-12-07T16:04:51;1.00;;;0.70;;
43696;SDS011;29301;47.620;19.560;2022-12-07T16:07:18;1.10;;;0.70;;
43696;SDS011;29301;47.620;19.560;2022-12-07T16:09:44;1.10;;;0.70;;
43696;SDS011;29301;47.620;19.560;2022-12-07T16:12:11;1.10;;;0.70;;
43696;SDS011;29301;47.620;19.560;2022-12-07T16:14:38;1.10;;;0.73;;
43696;SDS011;29301;47.620;19.560;2022-12-07T16:17:06;1.10;;;0.70;;
43696;SDS011;29301;47.620;19.560;2022-12-07T16:19:32;1.10;;;0.70;;
43696;SDS011;29301;47.620;19.560;2022-12-07T16:21:58;1.10;;;0.70;;
43696;SDS011;29301;47.620;19.560;2022-12-07T16:24:24;1.20;;;0.80;;
43696;SDS011;29301;47.620;19.560;2022-12-07T16:26:50;1.10;;;0.70;;
43696;SDS011;29301;47.620;19.560;2022-12-07T16:29:16;0.85;;;0.65;;
43696;SDS011;29301;47.620;19.560;2022-12-07T16:31:43;1.20;;;0.70;;
43696;SDS011;29301;47.620;19.560;2022-12-07T16:34:08;0.93;;;0.70;;
43696;SDS011;29301;47.620;19.560;2022-12-07T16:36:34;1.10;;;0.70;;
43696;SDS011;29301;47.620;19.560;2022-12-07T16:39:00;0.98;;;0.70;;
43696;SDS011;29301;47.620;19.560;2022-12-07T16:41:26;1.00;;;0.70;;
43696;SDS011;29301;47.620;19.560;2022-12-07T16:43:52;1.00;;;0.70;;
43696;SDS011;29301;47.620;19.560;2022-12-07T16:46:18;1.10;;;0.70;;
43696;SDS011;29301;47.620;19.560;2022-12-07T16:48:43;1.10;;;0.70;;
43696;SDS011;29301;47.620;19.560;2022-12-07T16:51:10;1.10;;;0.70;;
43696;SDS011;29301;47.620;19.560;2022-12-07T16:53:37;0.90;;;0.65;;
43696;SDS011;29301;47.620;19.560;2022-12-07T16:56:09;1.05;;;0.70;;
43696;SDS011;29301;47.620;19.560;2022-12-07T16:58:36;1.00;;;0.70;;
43696;SDS011;29301;47.620;19.560;2022-12-07T17:01:08;1.00;;;0.70;;
43696;SDS011;29301;47.620;19.560;2022-12-07T17:03:35;1.10;;;0.70;;
43696;SDS011;29301;47.620;19.560;2022-12-07T17:06:01;1.08;;;0.70;;
43696;SDS011;29301;47.620;19.560;2022-12-07T17:08:26;1.15;;;0.80;;
43696;SDS011;29301;47.620;19.560;2022-12-07T17:10:52;1.10;;;0.70;;
43696;SDS011;29301;47.620;19.560;2022-12-07T17:13:17;1.10;;;0.70;;
43696;SDS011;29301;47.620;19.560;2022-12-07T17:16:03;1.10;;;0.70;;
43696;SDS011;29301;47.620;19.560;2022-12-07T17:18:32;1.00;;;0.70;;
43696;SDS011;29301;47.620;19.560;2022-12-07T17:21:05;1.00;;;0.70;;
43696;SDS011;29301;47.620;19.560;2022-12-07T17:23:34;1.00;;;0.70;;
43696;SDS011;29301;47.620;19.560;2022-12-07T17:26:04;1.10;;;0.70;;
43696;SDS011;29301;47.620;19.560;2022-12-07T17:28:49;1.10;;;0.70;;
43696;SDS011;29301;47.620;19.560;2022-12-07T17:31:15;1.10;;;0.70;;
43696;SDS011;29301;47.620;19.560;2022-12-07T17:33:43;1.00;;;0.70;;
43696;SDS011;29301;47.620;19.560;2022-12-07T17:36:10;1.10;;;0.70;;
43696;SDS011;29301;47.620;19.560;2022-12-07T17:38:37;1.20;;;0.80;;
43696;SDS011;29301;47.620;19.560;2022-12-07T17:43:59;1.10;;;0.75;;
43696;SDS011;29301;47.620;19.560;2022-12-07T17:46:26;1.10;;;0.73;;
43696;SDS011;29301;47.620;19.560;2022-12-07T17:48:55;1.20;;;0.80;;
43696;SDS011;29301;47.620;19.560;2022-12-07T17:51:21;1.20;;;0.80;;
43696;SDS011;29301;47.620;19.560;2022-12-07T17:54:06;1.23;;;0.80;;
43696;SDS011;29301;47.620;19.560;2022-12-07T17:56:31;1.20;;;0.80;;
43696;SDS011;29301;47.620;19.560;2022-12-07T17:58:57;1.20;;;0.80;;
43696;SDS011;29301;47.620;19.560;2022-12-07T18:01:23;1.30;;;0.80;;
43696;SDS011;29301;47.620;19.560;2022-12-07T18:03:48;1.20;;;0.80;;
43696;SDS011;29301;47.620;19.560;2022-12-07T18:06:14;1.30;;;0.90;;
43696;SDS011;29301;47.620;19.560;2022-12-07T18:08:40;1.30;;;0.80;;
43696;SDS011;29301;47.620;19.560;2022-12-07T18:11:06;1.20;;;0.80;;
43696;SDS011;29301;47.620;19.560;2022-12-07T18:13:32;1.20;;;0.80;;
43696;SDS011;29301;47.620;19.560;2022-12-07T18:16:15;1.20;;;0.80;;
43696;SDS011;29301;47.620;19.560;2022-12-07T18:18:46;1.20;;;0.80;;
43696;SDS011;29301;47.620;19.560;2022-12-07T18:21:14;1.20;;;0.80;;
43696;SDS011;29301;47.620;19.560;2022-12-07T18:23:42;1.20;;;0.80;;
43696;SDS011;29301;47.620;19.560;2022-12-07T18:26:09;1.20;;;0.80;;
43696;SDS011;29301;47.620;19.560;2022-12-07T18:28:35;1.20;;;0.80;;
43696;SDS011;29301;47.620;19.560;2022-12-07T18:31:01;1.20;;;0.80;;
43696;SDS011;29301;47.620;19.560;2022-12-07T18:33:27;1.20;;;0.80;;
43696;SDS011;29301;47.620;19.560;2022-12-07T18:35:52;1.20;;;0.80;;
43696;SDS011;29301;47.620;19.560;2022-12-07T18:38:18;1.20;;;0.80;;
43696;SDS011;29301;47.620;19.560;2022-12-07T18:40:44;1.20;;;0.80;;
43696;SDS011;29301;47.620;19.560;2022-12-07T18:43:10;1.20;;;0.80;;
43696;SDS011;29301;47.620;19.560;2022-12-07T18:45:37;1.20;;;0.80;;
43696;SDS011;29301;47.620;19.560;2022-12-07T18:48:03;1.10;;;0.80;;
43696;SDS011;29301;47.620;19.560;2022-12-07T18:50:29;1.20;;;0.80;;
43696;SDS011;29301;47.620;19.560;2022-12-07T18:52:56;1.20;;;0.80;;
43696;SDS011;29301;47.620;19.560;2022-12-07T18:55:26;1.17;;;0.80;;
43696;SDS011;29301;47.620;19.560;2022-12-07T18:57:52;1.20;;;0.80;;
43696;SDS011;29301;47.620;19.560;2022-12-07T19:00:19;1.20;;;0.80;;
43696;SDS011;29301;47.620;19.560;2022-12-07T19:02:45;1.20;;;0.80;;
43696;SDS011;29301;47.620;19.560;2022-12-07T19:05:11;1.20;;;0.80;;
43696;SDS011;29301;47.620;19.560;2022-12-07T19:07:36;1.20;;;0.80;;
43696;SDS011;29301;47.620;19.560;2022-12-07T19:10:02;1.20;;;0.80;;
43696;SDS011;29301;47.620;19.560;2022-12-07T19:12:30;1.20;;;0.80;;
43696;SDS011;29301;47.620;19.560;2022-12-07T19:14:55;1.20;;;0.80;;
43696;SDS011;29301;47.620;19.560;2022-12-07T19:17:21;1.25;;;0.90;;
43696;SDS011;29301;47.620;19.560;2022-12-07T19:19:47;1.30;;;0.90;;
43696;SDS011;29301;47.620;19.560;2022-12-07T19:22:14;1.20;;;0.80;;
43696;SDS011;29301;47.620;19.560;2022-12-07T19:24:44;1.20;;;0.80;;
43696;SDS011;29301;47.620;19.560;2022-12-07T19:27:12;1.10;;;0.80;;
43696;SDS011;29301;47.620;19.560;2022-12-07T19:29:39;1.20;;;0.80;;
43696;SDS011;29301;47.620;19.560;2022-12-07T19:32:05;1.20;;;0.80;;
43696;SDS011;29301;47.620;19.560;2022-12-07T19:34:33;1.20;;;0.80;;
43696;SDS011;29301;47.620;19.560;2022-12-07T19:37:03;1.30;;;0.88;;
43696;SDS011;29301;47.620;19.560;2022-12-07T19:39:29;1.20;;;0.80;;
43696;SDS011;29301;47.620;19.560;2022-12-07T19:41:55;1.20;;;0.80;;
43696;SDS011;29301;47.620;19.560;2022-12-07T19:44:22;1.20;;;0.80;;
43696;SDS011;29301;47.620;19.560;2022-12-07T19:46:49;1.20;;;0.90;;
43696;SDS011;29301;47.620;19.560;2022-12-07T19:49:21;1.20;;;0.80;;
43696;SDS011;29301;47.620;19.560;2022-12-07T19:51:52;1.15;;;0.80;;
43696;SDS011;29301;47.620;19.560;2022-12-07T19:54:20;1.20;;;0.80;;
43696;SDS011;29301;47.620;19.560;2022-12-07T19:56:47;1.20;;;0.80;;
43696;SDS011;29301;47.620;19.560;2022-12-07T19:59:14;1.13;;;0.80;;
43696;SDS011;29301;47.620;19.560;2022-12-07T20:01:41;1.20;;;0.80;;
43696;SDS011;29301;47.620;19.560;2022-12-07T20:04:08;1.20;;;0.77;;
43696;SDS011;29301;47.620;19.560;2022-12-07T20:06:37;1.20;;;0.90;;
43696;SDS011;29301;47.620;19.560;2022-12-07T20:09:03;1.20;;;0.80;;
43696;SDS011;29301;47.620;19.560;2022-12-07T20:11:29;1.20;;;0.80;;
43696;SDS011;29301;47.620;19.560;2022-12-07T20:14:13;1.20;;;0.80;;
43696;SDS011;29301;47.620;19.560;2022-12-07T20:16:39;1.20;;;0.80;;
43696;SDS011;29301;47.620;19.560;2022-12-07T20:19:06;1.20;;;0.80;;
43696;SDS011;29301;47.620;19.560;2022-12-07T20:21:33;1.20;;;0.80;;
43696;SDS011;29301;47.620;19.560;2022-12-07T20:23:59;1.20;;;0.80;;
43696;SDS011;29301;47.620;19.560;2022-12-07T20:26:27;1.20;;;0.80;;
43696;SDS011;29301;47.620;19.560;2022-12-07T20:28:53;1.20;;;0.80;;
43696;SDS011;29301;47.620;19.560;2022-12-07T20:31:18;1.13;;;0.80;;
43696;SDS011;29301;47.620;19.560;2022-12-07T20:33:44;1.20;;;0.80;;
43696;SDS011;29301;47.620;19.560;2022-12-07T20:36:10;1.20;;;0.80;;
43696;SDS011;29301;47.620;19.560;2022-12-07T20:38:37;1.13;;;0.80;;
43696;SDS011;29301;47.620;19.560;2022-12-07T20:41:04;1.20;;;0.80;;
43696;SDS011;29301;47.620;19.560;2022-12-07T20:43:31;1.20;;;0.80;;
43696;SDS011;29301;47.620;19.560;2022-12-07T20:45:58;1.20;;;0.80;;
43696;SDS011;29301;47.620;19.560;2022-12-07T20:48:24;1.10;;;0.80;;
43696;SDS011;29301;47.620;19.560;2022-12-07T20:50:50;1.20;;;0.80;;
43696;SDS011;29301;47.620;19.560;2022-12-07T20:53:16;1.20;;;0.80;;
43696;SDS011;29301;47.620;19.560;2022-12-07T20:55:41;1.30;;;0.80;;
43696;SDS011;29301;47.620;19.560;2022-12-07T20:58:07;1.20;;;0.80;;
43696;SDS011;29301;47.620;19.560;2022-12-07T21:00:34;1.20;;;0.80;;
43696;SDS011;29301;47.620;19.560;2022-12-07T21:03:00;1.20;;;0.80;;
43696;SDS011;29301;47.620;19.560;2022-12-07T21:05:28;1.20;;;0.80;;
43696;SDS011;29301;47.620;19.560;2022-12-07T21:07:54;1.30;;;0.80;;
43696;SDS011;29301;47.620;19.560;2022-12-07T21:10:19;1.20;;;0.80;;
43696;SDS011;29301;47.620;19.560;2022-12-07T21:12:45;1.20;;;0.80;;
43696;SDS011;29301;47.620;19.560;2022-12-07T21:15:11;1.20;;;0.80;;
43696;SDS011;29301;47.620;19.560;2022-12-07T21:17:36;1.20;;;0.80;;
43696;SDS011;29301;47.620;19.560;2022-12-07T21:20:02;1.30;;;0.90;;
43696;SDS011;29301;47.620;19.560;2022-12-07T21:22:28;1.20;;;0.80;;
43696;SDS011;29301;47.620;19.560;2022-12-07T21:24:54;1.20;;;0.80;;
43696;SDS011;29301;47.620;19.560;2022-12-07T21:27:19;1.20;;;0.80;;
43696;SDS011;29301;47.620;19.560;2022-12-07T21:29:45;1.10;;;0.70;;
43696;SDS011;29301;47.620;19.560;2022-12-07T21:32:11;1.20;;;0.80;;
43696;SDS011;29301;47.620;19.560;2022-12-07T21:34:37;1.20;;;0.80;;
43696;SDS011;29301;47.620;19.560;2022-12-07T21:37:02;1.20;;;0.80;;
43696;SDS011;29301;47.620;19.560;2022-12-07T21:39:28;1.20;;;0.80;;
43696;SDS011;29301;47.620;19.560;2022-12-07T21:41:54;1.20;;;0.80;;
43696;SDS011;29301;47.620;19.560;2022-12-07T21:44:19;1.20;;;0.80;;
43696;SDS011;29301;47.620;19.560;2022-12-07T21:46:45;1.10;;;0.80;;
43696;SDS011;29301;47.620;19.560;2022-12-07T21:49:12;1.20;;;0.80;;
43696;SDS011;29301;47.620;19.560;2022-12-07T21:51:39;1.20;;;0.80;;
43696;SDS011;29301;47.620;19.560;2022-12-07T21:54:06;1.20;;;0.80;;
43696;SDS011;29301;47.620;19.560;2022-12-07T21:56:36;1.20;;;0.80;;
43696;SDS011;29301;47.620;19.560;2022-12-07T21:59:04;1.20;;;0.80;;
43696;SDS011;29301;47.620;19.560;2022-12-07T22:01:33;1.10;;;0.70;;
43696;SDS011;29301;47.620;19.560;2022-12-07T22:04:12;1.10;;;0.80;;
43696;SDS011;29301;47.620;19.560;2022-12-07T22:06:41;1.10;;;0.80;;
43696;SDS011;29301;47.620;19.560;2022-12-07T22:09:07;1.15;;;0.80;;
43696;SDS011;29301;47.620;19.560;2022-12-07T22:11:33;1.20;;;0.90;;
43696;SDS011;29301;47.620;19.560;2022-12-07T22:13:59;1.20;;;0.80;;
43696;SDS011;29301;47.620;19.560;2022-12-07T22:16:43;1.20;;;0.80;;
43696;SDS011;29301;47.620;19.560;2022-12-07T22:19:09;1.20;;;0.80;;
43696;SDS011;29301;47.620;19.560;2022-12-07T22:21:35;1.20;;;0.80;;
43696;SDS011;29301;47.620;19.560;2022-12-07T22:24:01;1.20;;;0.80;;
43696;SDS011;29301;47.620;19.560;2022-12-07T22:26:27;1.20;;;0.80;;
43696;SDS011;29301;47.620;19.560;2022-12-07T22:28:53;1.20;;;0.80;;
43696;SDS011;29301;47.620;19.560;2022-12-07T22:31:19;1.20;;;0.80;;
43696;SDS011;29301;47.620;19.560;2022-12-07T22:33:45;1.20;;;0.80;;
43696;SDS011;29301;47.620;19.560;2022-12-07T22:36:12;1.20;;;0.80;;
43696;SDS011;29301;47.620;19.560;2022-12-07T22:38:38;1.20;;;0.80;;
43696;SDS011;29301;47.620;19.560;2022-12-07T22:41:09;1.30;;;0.80;;
43696;SDS011;29301;47.620;19.560;2022-12-07T22:43:56;1.20;;;0.90;;
43696;SDS011;29301;47.620;19.560;2022-12-07T22:46:23;1.20;;;0.80;;
43696;SDS011;29301;47.620;19.560;2022-12-07T22:48:50;1.20;;;0.82;;
43696;SDS011;29301;47.620;19.560;2022-12-07T22:53:49;1.20;;;0.90;;
43696;SDS011;29301;47.620;19.560;2022-12-07T22:56:15;1.30;;;0.90;;
43696;SDS011;29301;47.620;19.560;2022-12-07T22:58:41;1.20;;;0.80;;
43696;SDS011;29301;47.620;19.560;2022-12-07T23:01:11;1.30;;;0.90;;
43696;SDS011;29301;47.620;19.560;2022-12-07T23:03:38;1.20;;;0.80;;
43696;SDS011;29301;47.620;19.560;2022-12-07T23:06:05;1.20;;;0.90;;
43696;SDS011;29301;47.620;19.560;2022-12-07T23:08:36;1.20;;;0.80;;
43696;SDS011;29301;47.620;19.560;2022-12-07T23:11:02;1.25;;;0.80;;
43696;SDS011;29301;47.620;19.560;2022-12-07T23:13:28;1.20;;;0.80;;
43696;SDS011;29301;47.620;19.560;2022-12-07T23:16:06;1.20;;;0.80;;
43696;SDS011;29301;47.620;19.560;2022-12-07T23:18:32;1.20;;;0.80;;
43696;SDS011;29301;47.620;19.560;2022-12-07T23:20:57;1.20;;;0.80;;